createdAt,value
2017-08-21T05:51:15.316Z,11.04
2017-08-21T05:52:15.307Z,11.00
2017-08-21T05:54:08.667Z,11.07
2017-08-21T05:55:08.673Z,11.14
2017-08-21T05:56:08.687Z,11.17
2017-08-21T05:57:08.781Z,11.18
2017-08-21T05:58:08.706Z,11.19
2017-08-21T05:59:08.712Z,11.26
2017-08-21T06:00:08.725Z,11.23
2017-08-21T06:01:08.734Z,11.19
2017-08-21T06:02:08.777Z,11.19
2017-08-21T06:03:08.823Z,11.23
2017-08-21T06:04:08.802Z,11.33
2017-08-21T06:05:08.779Z,11.36
2017-08-21T06:06:09.780Z,11.40
2017-08-21T06:07:08.800Z,11.35
2017-08-21T06:08:08.817Z,11.41
2017-08-21T06:09:08.821Z,11.43
2017-08-21T06:10:08.934Z,11.52
2017-08-21T06:11:08.849Z,11.52
2017-08-21T06:12:08.905Z,11.52
2017-08-21T06:13:08.864Z,11.51
2017-08-21T06:14:08.920Z,11.52
2017-08-21T06:15:08.877Z,11.65
2017-08-21T06:16:08.941Z,11.63
2017-08-21T06:17:08.939Z,11.69
2017-08-21T06:18:08.977Z,11.72
2017-08-21T06:19:08.922Z,11.59
2017-08-21T06:20:08.991Z,11.70
2017-08-21T06:21:08.946Z,11.78
2017-08-21T06:22:09.009Z,11.81
2017-08-21T06:23:08.968Z,11.86
2017-08-21T06:24:09.016Z,11.90
2017-08-21T06:25:08.986Z,11.91
2017-08-21T06:26:09.033Z,12.03
2017-08-21T06:27:09.009Z,12.21
2017-08-21T06:28:09.042Z,12.27
2017-08-21T06:29:09.038Z,12.37
2017-08-21T06:30:09.058Z,12.40
2017-08-21T06:31:09.057Z,12.55
2017-08-21T06:32:09.173Z,12.72
2017-08-21T06:33:09.076Z,12.65
2017-08-21T06:34:09.185Z,12.65
2017-08-21T06:35:09.097Z,12.78
2017-08-21T06:36:09.198Z,12.72
2017-08-21T06:37:09.112Z,12.76
2017-08-21T06:38:10.239Z,12.79
2017-08-21T06:39:09.137Z,12.76
2017-08-21T06:40:09.225Z,12.78
2017-08-21T06:41:09.157Z,12.76
2017-08-21T06:42:09.241Z,12.75
2017-08-21T06:43:09.176Z,12.83
2017-08-21T06:44:09.256Z,12.83
2017-08-21T06:45:09.200Z,12.78
2017-08-21T06:46:09.269Z,12.82
2017-08-21T06:47:09.223Z,12.83
2017-08-21T06:48:09.277Z,12.83
2017-08-21T06:49:09.241Z,12.83
2017-08-21T06:50:09.291Z,12.86
2017-08-21T06:51:09.267Z,12.85
2017-08-21T06:52:09.309Z,12.95
2017-08-21T06:53:09.286Z,12.94
2017-08-21T06:54:09.321Z,12.93
2017-08-21T06:55:09.314Z,13.03
2017-08-21T06:56:09.335Z,13.01
2017-08-21T06:57:09.324Z,13.05
2017-08-21T06:58:09.450Z,13.03
2017-08-21T06:59:09.349Z,13.03
2017-08-21T07:00:09.467Z,13.11
2017-08-21T07:01:09.365Z,13.12
2017-08-21T07:02:09.479Z,13.12
2017-08-21T07:03:09.386Z,13.16
2017-08-21T07:04:09.491Z,13.22
2017-08-21T07:05:09.414Z,13.27
2017-08-21T07:06:09.506Z,13.38
2017-08-21T07:07:09.437Z,13.46
2017-08-21T07:08:09.517Z,13.53
2017-08-21T07:09:09.465Z,13.59
2017-08-21T07:10:09.536Z,13.63
2017-08-21T07:11:09.471Z,13.68
2017-08-21T07:12:09.547Z,13.77
2017-08-21T07:13:09.493Z,13.79
2017-08-21T07:14:09.562Z,13.90
2017-08-21T07:15:09.524Z,13.97
2017-08-21T07:16:09.572Z,13.96
2017-08-21T07:17:09.539Z,14.03
2017-08-21T07:18:10.608Z,13.92
2017-08-21T07:19:09.576Z,13.95
2017-08-21T07:20:09.598Z,13.96
2017-08-21T07:21:09.582Z,13.95
2017-08-21T07:22:09.617Z,13.97
2017-08-21T07:23:09.604Z,13.97
2017-08-21T07:24:09.643Z,13.86
2017-08-21T07:25:09.625Z,14.05
2017-08-21T07:26:09.742Z,13.99
2017-08-21T07:27:09.643Z,13.99
2017-08-21T07:28:09.758Z,14.03
2017-08-21T07:29:09.665Z,14.04
2017-08-21T07:30:09.768Z,14.11
2017-08-21T07:31:09.689Z,14.07
2017-08-21T07:32:09.790Z,14.15
2017-08-21T08:47:25.387Z,17.70
2017-08-21T08:48:25.363Z,17.72
2017-08-21T08:49:25.466Z,17.65
2017-08-21T08:50:25.384Z,17.71
2017-08-21T08:51:25.480Z,17.72
2017-08-21T08:52:25.408Z,17.76
2017-08-21T08:53:25.499Z,17.71
2017-08-21T08:54:25.435Z,17.71
2017-08-21T08:55:25.585Z,17.79
2017-08-21T08:56:25.460Z,17.80
2017-08-21T08:57:25.519Z,17.90
2017-08-21T08:58:25.480Z,17.85
2017-08-21T08:59:25.484Z,17.85
2017-08-21T09:00:25.541Z,17.89
2017-08-21T09:01:25.507Z,17.83
2017-08-21T09:02:27.599Z,17.85
2017-08-21T09:03:25.560Z,17.82
2017-08-21T09:04:25.544Z,17.78
2017-08-21T09:05:25.573Z,17.79
2017-08-21T09:06:25.569Z,17.72
2017-08-21T09:07:25.577Z,17.68
2017-08-21T09:08:25.598Z,17.71
2017-08-21T09:09:25.601Z,17.67
2017-08-21T09:10:25.611Z,17.71
2017-08-21T09:11:25.713Z,17.82
2017-08-21T09:12:25.637Z,17.72
2017-08-21T09:13:25.728Z,17.82
2017-08-21T09:14:25.682Z,17.83
2017-08-21T09:15:25.683Z,17.85
2017-08-21T09:16:25.683Z,17.95
2017-08-21T09:17:26.784Z,17.85
2017-08-21T09:18:25.734Z,17.95
2017-08-21T09:19:25.723Z,17.86
2017-08-21T09:20:25.788Z,17.90
2017-08-21T09:21:25.739Z,17.90
2017-08-21T09:22:25.795Z,18.07
2017-08-21T09:23:25.766Z,18.13
2017-08-21T09:24:25.807Z,18.23
2017-08-21T09:25:25.784Z,18.34
2017-08-21T09:26:25.821Z,18.43
2017-08-21T09:27:25.821Z,18.55
2017-08-21T09:28:25.832Z,18.65
2017-08-21T09:29:25.946Z,18.56
2017-08-21T09:30:25.847Z,18.53
2017-08-21T09:31:26.914Z,18.50
2017-08-21T09:32:25.884Z,18.47
2017-08-21T09:33:25.891Z,18.34
2017-08-21T09:34:25.896Z,18.25
2017-08-21T09:35:25.912Z,18.18
2017-08-21T09:36:27.016Z,18.34
2017-08-21T09:37:25.952Z,18.49
2017-08-21T09:38:27.032Z,18.49
2017-08-21T09:39:25.954Z,18.62
2017-08-21T09:40:25.987Z,18.74
2017-08-21T09:41:26.025Z,18.73
2017-08-21T09:42:26.000Z,18.78
2017-08-21T09:43:26.051Z,18.80
2017-08-21T09:44:26.015Z,18.89
2017-08-21T09:45:28.101Z,19.04
2017-08-21T09:46:26.045Z,19.08
2017-08-21T09:47:26.067Z,19.12
2017-08-21T09:48:26.074Z,19.33
2017-08-21T09:49:27.104Z,19.29
2017-08-21T09:50:26.090Z,19.27
2017-08-21T09:51:26.235Z,19.22
2017-08-21T09:52:26.114Z,19.15
2017-08-21T09:53:27.236Z,19.00
2017-08-21T09:54:26.145Z,19.09
2017-08-21T09:55:26.219Z,19.09
2017-08-21T09:56:26.161Z,19.15
2017-08-21T09:57:26.237Z,19.16
2017-08-21T09:58:26.198Z,19.29
2017-08-21T09:59:26.248Z,19.36
2017-08-21T10:00:26.211Z,19.36
2017-08-21T10:01:28.322Z,19.51
2017-08-21T10:02:26.249Z,19.55
2017-08-21T10:03:26.276Z,19.58
2017-08-21T10:04:26.264Z,19.74
2017-08-21T10:05:27.318Z,19.91
2017-08-21T10:06:26.288Z,20.13
2017-08-21T10:07:26.411Z,20.28
2017-08-21T10:08:26.351Z,20.21
2017-08-21T10:09:26.444Z,20.22
2017-08-21T10:10:26.339Z,20.29
2017-08-21T10:11:26.437Z,20.44
2017-08-21T10:12:26.361Z,20.41
2017-08-21T10:13:26.455Z,20.51
2017-08-21T10:14:26.382Z,20.63
2017-08-21T10:15:28.517Z,20.66
2017-08-21T10:16:26.418Z,20.72
2017-08-21T10:17:26.482Z,20.72
2017-08-21T10:18:26.449Z,20.75
2017-08-21T10:19:26.493Z,20.82
2017-08-21T10:20:26.468Z,20.78
2017-08-21T10:21:26.506Z,20.99
2017-08-21T10:22:26.490Z,21.06
2017-08-21T10:23:27.539Z,21.15
2017-08-21T10:24:26.518Z,21.24
2017-08-21T10:25:26.637Z,21.22
2017-08-21T10:26:26.544Z,21.06
2017-08-21T10:27:26.641Z,20.96
2017-08-21T10:28:26.569Z,20.80
2017-08-21T10:29:26.657Z,20.75
2017-08-21T10:30:27.764Z,20.63
2017-08-21T10:31:26.610Z,20.55
2017-08-21T10:32:27.704Z,20.48
2017-08-21T10:33:26.635Z,20.50
2017-08-21T10:34:26.693Z,20.43
2017-08-21T10:35:26.670Z,20.36
2017-08-21T10:36:26.702Z,20.39
2017-08-21T10:37:26.681Z,20.34
2017-08-21T10:38:26.702Z,20.36
2017-08-21T10:39:26.713Z,20.31
2017-08-21T10:40:26.748Z,20.24
2017-08-21T10:41:26.737Z,20.11
2017-08-21T10:42:26.855Z,20.00
2017-08-21T10:43:26.758Z,20.04
2017-08-21T10:44:26.859Z,20.00
2017-08-21T10:45:26.810Z,19.99
2017-08-21T10:46:26.875Z,19.86
2017-08-21T10:47:26.817Z,19.86
2017-08-21T10:48:26.826Z,19.95
2017-08-21T10:49:26.838Z,20.04
2017-08-21T10:50:26.865Z,20.26
2017-08-21T10:51:26.880Z,20.40
2017-08-21T10:52:26.877Z,20.66
2017-08-21T10:53:26.941Z,20.77
2017-08-21T10:54:26.911Z,20.77
2017-08-21T10:55:26.930Z,20.77
2017-08-21T10:56:26.933Z,20.82
2017-08-21T10:57:26.948Z,20.90
2017-08-21T10:58:26.958Z,20.97
2017-08-21T10:59:26.971Z,20.96
2017-08-21T11:00:26.981Z,20.97
2017-08-21T11:01:27.003Z,20.96
2017-08-21T11:02:27.009Z,21.05
2017-08-21T11:03:27.024Z,21.03
2017-08-21T11:04:27.030Z,21.02
2017-08-21T11:05:27.106Z,21.09
2017-08-21T11:06:27.185Z,21.14
2017-08-21T11:07:31.958Z,21.06
2017-08-21T11:08:27.088Z,21.02
2017-08-21T11:09:28.159Z,20.97
2017-08-21T11:10:27.128Z,21.00
2017-08-21T11:11:27.147Z,21.03
2017-08-21T11:12:27.143Z,21.03
2017-08-21T11:13:29.220Z,21.03
2017-08-21T11:14:27.169Z,20.99
2017-08-21T11:15:27.273Z,21.06
2017-08-21T11:16:27.197Z,21.17
2017-08-21T11:17:27.231Z,21.22
2017-08-21T11:18:27.304Z,21.20
2017-08-21T11:19:27.242Z,21.00
2017-08-21T11:20:32.944Z,21.00
2017-08-21T11:21:27.261Z,20.95
2017-08-21T11:22:28.347Z,21.00
2017-08-21T11:23:27.290Z,21.07
2017-08-21T11:24:33.887Z,21.17
2017-08-21T11:25:27.325Z,21.27
2017-08-21T11:26:27.351Z,21.48
2017-08-21T11:27:27.337Z,21.57
2017-08-21T11:28:29.412Z,21.61
2017-08-21T11:29:27.377Z,21.61
2017-08-21T11:30:33.421Z,21.61
2017-08-21T11:31:27.420Z,21.51
2017-08-21T11:32:28.521Z,21.46
2017-08-21T11:33:27.422Z,21.42
2017-08-21T11:34:29.556Z,21.35
2017-08-21T11:35:27.450Z,21.54
2017-08-21T11:36:27.465Z,21.66
2017-08-21T11:37:28.559Z,21.64
2017-08-21T11:38:27.490Z,21.70
2017-08-21T11:39:27.558Z,21.89
2017-08-21T11:40:27.519Z,22.11
2017-08-21T11:41:27.573Z,22.18
2017-08-21T11:42:27.547Z,22.35
2017-08-21T11:43:27.597Z,22.38
2017-08-21T11:44:27.573Z,22.36
2017-08-21T11:45:28.619Z,22.50
2017-08-21T11:46:27.599Z,22.38
2017-08-21T11:47:27.711Z,22.35
2017-08-21T11:48:27.668Z,22.33
2017-08-21T11:49:27.724Z,22.30
2017-08-21T11:50:27.655Z,22.26
2017-08-21T11:51:27.738Z,22.35
2017-08-21T11:52:27.681Z,22.45
2017-08-21T11:53:27.751Z,22.51
2017-08-21T11:54:27.707Z,22.54
2017-08-21T11:55:27.725Z,22.59
2017-08-21T11:56:27.811Z,22.54
2017-08-21T11:57:27.757Z,22.63
2017-08-21T11:58:27.821Z,22.59
2017-08-21T11:59:27.783Z,22.43
2017-08-21T12:00:27.796Z,22.50
2017-08-21T12:01:27.843Z,22.54
2017-08-21T12:02:27.823Z,22.53
2017-08-21T12:03:27.839Z,22.60
2017-08-21T12:04:27.853Z,22.66
2017-08-21T12:05:27.951Z,22.66
2017-08-21T12:06:27.882Z,22.66
2017-08-21T12:07:27.960Z,22.73
2017-08-21T12:08:27.904Z,22.68
2017-08-21T12:09:27.981Z,22.59
2017-08-21T12:10:27.954Z,22.47
2017-08-21T12:11:27.992Z,22.45
2017-08-21T12:12:27.965Z,22.44
2017-08-21T12:13:28.004Z,22.41
2017-08-21T12:14:28.001Z,22.48
2017-08-21T12:15:28.008Z,22.66
2017-08-21T12:16:28.136Z,22.69
2017-08-21T12:17:28.030Z,22.85
2017-08-21T12:18:28.140Z,22.91
2017-08-21T12:19:28.057Z,22.98
2017-08-21T12:20:28.078Z,23.05
2017-08-21T12:21:28.096Z,23.10
2017-08-21T12:22:28.127Z,23.25
2017-08-21T12:23:28.163Z,23.24
2017-08-21T12:24:28.135Z,23.31
2017-08-21T12:25:28.142Z,23.25
2017-08-21T12:26:28.163Z,23.08
2017-08-21T12:27:28.172Z,22.99
2017-08-21T12:28:28.188Z,22.90
2017-08-21T12:29:28.285Z,22.88
2017-08-21T12:30:28.311Z,22.94
2017-08-21T12:31:28.247Z,22.96
2017-08-21T12:32:29.360Z,22.96
2017-08-21T12:33:28.260Z,22.91
2017-08-21T12:34:28.272Z,22.85
2017-08-21T12:35:28.347Z,22.65
2017-08-21T12:36:28.303Z,22.53
2017-08-21T12:37:28.357Z,22.39
2017-08-21T12:38:28.328Z,22.33
2017-08-21T12:39:28.370Z,22.29
2017-08-21T12:40:28.355Z,22.17
2017-08-21T12:41:28.370Z,22.06
2017-08-21T12:42:28.396Z,22.08
2017-08-21T12:43:29.423Z,22.20
2017-08-21T12:44:28.418Z,22.30
2017-08-21T12:45:28.521Z,22.36
2017-08-21T12:46:28.449Z,22.59
2017-08-21T12:47:30.578Z,22.66
2017-08-21T12:48:28.485Z,22.80
2017-08-21T12:49:28.545Z,22.96
2017-08-21T12:50:28.578Z,23.17
2017-08-21T12:51:28.558Z,23.20
2017-08-21T12:52:28.536Z,23.36
2017-08-21T12:53:28.544Z,23.39
2017-08-21T12:54:28.578Z,23.40
2017-08-21T12:55:28.576Z,23.46
2017-08-21T12:56:28.694Z,23.56
2017-08-21T12:57:28.604Z,23.56
2017-08-21T12:58:28.616Z,23.48
2017-08-21T12:59:28.638Z,23.56
2017-08-21T13:00:28.721Z,23.61
2017-08-21T13:01:28.662Z,23.56
2017-08-21T13:02:28.736Z,23.56
2017-08-21T13:03:28.695Z,23.50
2017-08-21T13:04:28.748Z,23.46
2017-08-21T13:05:28.735Z,23.48
2017-08-21T13:06:28.735Z,23.51
2017-08-21T13:07:28.755Z,23.41
2017-08-21T13:08:28.882Z,23.23
2017-08-21T13:09:28.781Z,23.02
2017-08-21T13:10:28.890Z,23.13
2017-08-21T13:11:29.109Z,23.25
2017-08-21T13:12:28.908Z,23.31
2017-08-21T13:13:28.836Z,23.39
2017-08-21T13:14:28.854Z,23.41
2017-08-21T13:15:28.871Z,23.37
2017-08-21T13:16:28.893Z,23.24
2017-08-21T13:17:28.925Z,23.17
2017-08-21T13:18:28.915Z,23.08
2017-08-21T13:19:28.929Z,23.03
2017-08-21T13:20:28.948Z,22.91
2017-08-21T13:21:28.953Z,22.98
2017-08-21T13:22:28.968Z,23.15
2017-08-21T13:23:29.077Z,23.00
2017-08-21T13:24:28.996Z,22.98
2017-08-21T13:25:30.114Z,22.87
2017-08-21T13:26:29.027Z,22.78
2017-08-21T13:27:29.102Z,22.78
2017-08-21T13:28:29.060Z,22.90
2017-08-21T13:29:29.115Z,23.00
2017-08-21T13:30:29.090Z,22.98
2017-08-21T13:31:29.114Z,22.94
2017-08-21T13:32:29.121Z,22.93
2017-08-21T13:33:29.130Z,23.08
2017-08-21T13:34:29.156Z,23.08
2017-08-21T13:35:29.166Z,23.08
2017-08-21T13:36:29.293Z,23.03
2017-08-21T13:37:29.197Z,23.06
2017-08-21T13:38:29.277Z,23.05
2017-08-21T13:39:29.225Z,23.09
2017-08-21T13:40:29.240Z,23.20
2017-08-21T13:41:29.252Z,23.23
2017-08-21T13:42:29.303Z,23.20
2017-08-21T13:43:29.280Z,23.10
2017-08-21T13:44:30.432Z,23.08
2017-08-21T13:45:29.315Z,23.09
2017-08-21T13:46:31.449Z,23.06
2017-08-21T13:47:29.338Z,22.94
2017-08-21T13:48:29.427Z,22.96
2017-08-21T13:49:29.378Z,22.94
2017-08-21T13:50:29.418Z,22.87
2017-08-21T13:51:29.400Z,22.78
2017-08-21T13:52:29.434Z,22.75
2017-08-21T13:53:29.430Z,22.85
2017-08-21T13:54:29.563Z,22.90
2017-08-21T13:55:29.463Z,22.93
2017-08-21T13:56:30.585Z,22.90
2017-08-21T13:57:29.495Z,22.80
2017-08-21T13:58:29.575Z,22.87
2017-08-21T13:59:29.531Z,22.88
2017-08-21T14:00:29.536Z,22.87
2017-08-21T14:01:29.597Z,22.85
2017-08-21T14:02:29.568Z,22.91
2017-08-21T14:03:29.609Z,22.98
2017-08-21T14:04:29.605Z,22.96
2017-08-21T14:05:29.809Z,23.03
2017-08-21T14:06:29.628Z,23.09
2017-08-21T14:07:29.739Z,23.15
2017-08-21T14:08:29.655Z,23.09
2017-08-21T14:09:29.752Z,23.09
2017-08-21T14:10:29.686Z,23.15
2017-08-21T14:11:29.768Z,23.24
2017-08-21T14:12:29.728Z,23.31
2017-08-21T14:13:29.779Z,23.31
2017-08-21T14:14:29.749Z,23.27
2017-08-21T14:15:29.799Z,23.32
2017-08-21T14:16:29.786Z,23.31
2017-08-21T14:17:29.799Z,23.31
2017-08-21T14:18:29.814Z,23.31
2017-08-21T14:19:29.830Z,23.05
2017-08-21T14:20:29.916Z,22.96
2017-08-21T14:21:29.855Z,22.87
2017-08-21T14:22:29.938Z,22.83
2017-08-21T14:23:29.886Z,22.78
2017-08-21T14:24:29.908Z,22.76
2017-08-21T14:25:29.925Z,22.65
2017-08-21T14:26:29.954Z,22.66
2017-08-21T14:27:29.959Z,22.54
2017-08-21T14:28:30.071Z,22.47
2017-08-21T14:29:29.981Z,22.47
2017-08-21T14:30:31.115Z,22.44
2017-08-21T14:31:30.023Z,22.53
2017-08-21T14:32:30.077Z,22.54
2017-08-21T14:33:30.108Z,22.57
2017-08-21T14:34:30.055Z,22.60
2017-08-21T14:35:30.123Z,22.51
2017-08-21T14:36:30.091Z,22.55
2017-08-21T14:37:30.137Z,22.60
2017-08-21T14:38:30.114Z,22.55
2017-08-21T14:39:30.147Z,22.53
2017-08-21T14:40:30.145Z,22.53
2017-08-21T14:41:30.263Z,22.43
2017-08-21T14:42:30.252Z,22.36
2017-08-21T14:43:30.281Z,22.25
2017-08-21T14:44:30.208Z,22.15
2017-08-21T14:45:30.226Z,22.13
2017-08-21T14:46:30.300Z,22.00
2017-08-21T14:47:30.256Z,22.13
2017-08-21T14:48:30.314Z,22.08
2017-08-21T14:49:30.282Z,21.96
2017-08-21T14:50:30.325Z,21.95
2017-08-21T14:51:30.311Z,21.72
2017-08-21T14:52:30.446Z,21.76
2017-08-21T14:53:30.348Z,21.69
2017-08-21T14:54:30.456Z,21.64
2017-08-21T14:55:30.379Z,21.69
2017-08-21T14:56:30.474Z,21.62
2017-08-21T14:57:30.407Z,21.50
2017-08-21T14:58:30.483Z,21.62
2017-08-21T14:59:30.448Z,21.58
2017-08-21T15:00:30.499Z,21.64
2017-08-21T15:01:30.469Z,21.62
2017-08-21T15:02:31.539Z,21.75
2017-08-21T15:03:30.508Z,21.58
2017-08-21T15:04:30.632Z,21.67
2017-08-21T15:05:30.534Z,21.70
2017-08-21T15:06:30.547Z,21.77
2017-08-21T15:07:30.650Z,21.79
2017-08-21T15:08:30.580Z,21.76
2017-08-21T15:09:30.661Z,21.62
2017-08-21T15:10:30.614Z,21.69
2017-08-21T15:11:30.676Z,21.72
2017-08-21T15:12:30.717Z,21.67
2017-08-21T15:13:30.687Z,21.66
2017-08-21T15:14:30.673Z,21.70
2017-08-21T15:15:30.802Z,21.69
2017-08-21T15:16:30.704Z,21.75
2017-08-21T15:17:30.813Z,21.79
2017-08-21T15:18:30.736Z,21.79
2017-08-21T15:19:30.752Z,21.85
2017-08-21T15:20:31.859Z,21.82
2017-08-21T15:21:30.779Z,21.79
2017-08-21T15:22:30.852Z,21.79
2017-08-21T15:23:30.813Z,21.79
2017-08-21T15:24:30.828Z,21.85
2017-08-21T15:25:30.869Z,21.95
2017-08-21T15:26:30.855Z,21.93
2017-08-21T15:27:30.985Z,21.98
2017-08-21T15:28:30.888Z,22.04
2017-08-21T15:29:30.999Z,22.08
2017-08-21T15:30:30.925Z,22.10
2017-08-21T15:31:31.014Z,22.10
2017-08-21T15:32:30.949Z,22.08
2017-08-21T15:33:31.025Z,22.07
2017-08-21T15:34:30.985Z,22.14
2017-08-21T15:35:31.037Z,21.99
2017-08-21T15:36:31.011Z,22.00
2017-08-21T15:37:31.063Z,22.02
2017-08-21T15:38:31.057Z,22.08
2017-08-21T15:39:31.062Z,22.08
2017-08-21T15:40:31.196Z,22.00
2017-08-21T15:41:31.098Z,21.91
2017-08-21T15:42:31.104Z,21.92
2017-08-21T15:43:31.136Z,21.83
2017-08-21T15:44:31.140Z,21.79
2017-08-21T15:45:31.158Z,21.80
2017-08-21T15:46:32.239Z,21.88
2017-08-21T15:47:31.192Z,21.95
2017-08-21T15:48:31.231Z,21.96
2017-08-21T15:49:31.223Z,22.13
2017-08-21T15:50:31.346Z,22.14
2017-08-21T15:51:31.249Z,22.15
2017-08-21T15:52:31.361Z,22.18
2017-08-21T15:53:31.283Z,22.36
2017-08-21T15:54:31.374Z,22.29
2017-08-21T15:55:31.319Z,22.32
2017-08-21T15:56:31.387Z,22.32
2017-08-21T15:57:31.349Z,22.30
2017-08-21T15:58:31.357Z,22.36
2017-08-21T15:59:31.393Z,22.33
2017-08-21T16:00:31.405Z,22.32
2017-08-21T16:01:31.406Z,22.36
2017-08-21T16:02:31.427Z,22.35
2017-08-21T16:03:31.441Z,22.28
2017-08-21T16:04:31.543Z,22.17
2017-08-21T16:05:31.464Z,22.17
2017-08-21T16:06:31.559Z,22.17
2017-08-21T16:07:31.503Z,22.06
2017-08-21T16:08:31.577Z,22.07
2017-08-21T16:09:31.533Z,22.13
2017-08-21T16:10:31.584Z,22.08
2017-08-21T16:11:31.567Z,22.08
2017-08-21T16:12:31.599Z,21.96
2017-08-21T16:13:31.596Z,22.07
2017-08-21T16:14:31.716Z,21.99
2017-08-21T16:15:31.647Z,21.99
2017-08-21T16:16:32.757Z,21.93
2017-08-21T16:17:31.670Z,21.96
2017-08-21T16:18:31.768Z,22.00
2017-08-21T16:19:31.690Z,22.00
2017-08-21T16:20:31.770Z,22.00
2017-08-21T16:21:31.733Z,22.00
2017-08-21T16:22:31.771Z,21.96
2017-08-21T16:23:31.750Z,22.14
2017-08-21T16:24:31.766Z,22.06
2017-08-21T16:25:31.786Z,21.98
2017-08-21T16:26:31.896Z,21.98
2017-08-21T16:27:31.816Z,22.07
2017-08-21T16:28:31.835Z,21.98
2017-08-21T16:29:31.915Z,21.96
2017-08-21T16:30:31.890Z,21.99
2017-08-21T16:31:31.943Z,21.95
2017-08-21T16:32:31.908Z,21.91
2017-08-21T16:33:31.941Z,21.88
2017-08-21T16:34:31.925Z,21.82
2017-08-21T16:35:31.960Z,21.77
2017-08-21T16:36:31.958Z,21.76
2017-08-21T16:37:32.072Z,21.67
2017-08-21T16:38:32.061Z,21.69
2017-08-21T16:39:34.041Z,21.61
2017-08-21T16:40:32.045Z,21.51
2017-08-21T16:41:33.132Z,21.51
2017-08-21T16:42:32.078Z,21.46
2017-08-21T16:43:32.070Z,21.43
2017-08-21T16:44:32.081Z,21.40
2017-08-21T16:45:32.099Z,21.37
2017-08-21T16:46:32.114Z,21.27
2017-08-21T16:47:32.247Z,21.18
2017-08-21T16:48:32.151Z,21.17
2017-08-21T16:49:32.233Z,21.14
2017-08-21T16:50:32.188Z,21.20
2017-08-21T16:51:32.209Z,21.06
2017-08-21T16:52:32.216Z,21.00
2017-08-21T16:53:32.227Z,21.03
2017-08-21T16:54:32.247Z,20.97
2017-08-21T16:55:32.371Z,20.87
2017-08-21T16:56:32.301Z,20.87
2017-08-21T16:57:32.317Z,20.81
2017-08-21T16:58:32.308Z,20.75
2017-08-21T16:59:32.351Z,20.77
2017-08-21T17:00:33.518Z,20.69
2017-08-21T17:01:32.979Z,20.67
2017-08-21T17:02:32.469Z,20.62
2017-08-21T17:03:32.418Z,20.58
2017-08-21T17:04:32.394Z,20.58
2017-08-21T17:05:32.488Z,20.52
2017-08-21T17:06:32.435Z,20.55
2017-08-21T17:07:32.466Z,20.50
2017-08-21T17:08:32.516Z,20.47
2017-08-21T17:09:32.529Z,20.52
2017-08-21T17:10:32.587Z,20.52
2017-08-21T17:11:32.543Z,20.51
2017-08-21T17:12:32.587Z,20.39
2017-08-21T17:13:32.560Z,20.50
2017-08-21T17:14:32.555Z,20.41
2017-08-21T17:15:32.651Z,20.39
2017-08-21T17:16:32.627Z,20.37
2017-08-21T17:17:32.673Z,20.41
2017-08-21T17:18:33.479Z,20.40
2017-08-21T17:19:32.748Z,20.40
2017-08-21T17:20:32.658Z,20.40
2017-08-21T17:21:33.689Z,20.34
2017-08-21T17:22:32.691Z,20.28
2017-08-21T17:23:32.700Z,20.28
2017-08-21T17:24:32.716Z,20.26
2017-08-21T17:25:32.726Z,20.24
2017-08-21T17:26:32.802Z,20.14
2017-08-21T17:27:32.767Z,20.16
2017-08-21T17:28:32.816Z,20.11
2017-08-21T17:29:32.793Z,20.14
2017-08-21T17:30:32.827Z,20.09
2017-08-21T17:31:32.825Z,20.02
2017-08-21T17:32:32.931Z,20.02
2017-08-21T17:33:32.861Z,20.00
2017-08-21T17:34:32.940Z,20.00
2017-08-21T17:35:32.886Z,19.94
2017-08-21T17:36:32.957Z,19.99
2017-08-21T17:37:32.919Z,19.94
2017-08-21T17:38:33.996Z,19.85
2017-08-21T17:39:32.954Z,19.82
2017-08-21T17:40:32.989Z,19.79
2017-08-21T17:41:32.983Z,19.82
2017-08-21T17:42:33.100Z,19.76
2017-08-21T17:43:33.014Z,19.76
2017-08-21T17:44:33.032Z,19.71
2017-08-21T17:45:34.153Z,19.56
2017-08-21T17:46:33.061Z,19.59
2017-08-21T17:47:33.134Z,19.62
2017-08-21T17:48:33.095Z,19.64
2017-08-21T17:49:33.149Z,19.62
2017-08-21T17:50:33.128Z,19.55
2017-08-21T17:51:33.143Z,19.58
2017-08-21T17:52:33.168Z,19.49
2017-08-21T17:53:33.176Z,19.55
2017-08-21T17:54:33.284Z,19.48
2017-08-21T17:55:33.276Z,19.41
2017-08-21T17:56:33.301Z,19.37
2017-08-21T17:57:33.232Z,19.36
2017-08-21T17:58:33.316Z,19.30
2017-08-21T17:59:33.271Z,19.40
2017-08-21T18:00:33.336Z,19.30
2017-08-21T18:01:33.357Z,19.24
2017-08-21T18:02:35.359Z,19.24
2017-08-21T18:03:33.328Z,19.18
2017-08-21T18:04:33.353Z,19.15
2017-08-21T18:05:33.440Z,19.11
2017-08-21T18:06:33.379Z,19.09
2017-08-21T18:07:33.523Z,19.09
2017-08-21T18:08:33.408Z,19.07
2017-08-21T18:09:33.462Z,18.93
2017-08-21T18:10:33.439Z,18.96
2017-08-21T18:11:34.517Z,18.86
2017-08-21T18:12:33.472Z,18.92
2017-08-21T18:13:33.587Z,18.84
2017-08-21T18:14:33.497Z,18.78
2017-08-21T18:15:33.596Z,18.78
2017-08-21T18:16:33.531Z,18.73
2017-08-21T18:17:33.546Z,18.80
2017-08-21T18:18:33.585Z,18.62
2017-08-21T18:19:33.578Z,18.66
2017-08-21T18:20:33.629Z,18.60
2017-08-21T18:21:33.631Z,18.52
2017-08-21T18:22:33.646Z,18.55
2017-08-21T18:23:33.648Z,18.44
2017-08-21T18:24:33.764Z,18.37
2017-08-21T18:25:33.693Z,18.33
2017-08-21T18:26:33.692Z,18.22
2017-08-21T18:27:34.808Z,18.25
2017-08-21T18:28:33.718Z,18.23
2017-08-21T18:29:38.611Z,18.20
2017-08-21T18:30:33.756Z,18.03
2017-08-21T18:31:33.776Z,18.03
2017-08-21T18:32:33.821Z,18.07
2017-08-21T18:33:33.804Z,17.86
2017-08-21T18:34:33.940Z,17.86
2017-08-21T18:35:33.881Z,17.83
2017-08-21T18:36:33.940Z,17.79
2017-08-21T18:37:33.867Z,17.72
2017-08-21T18:38:33.879Z,17.82
2017-08-21T18:39:33.897Z,17.74
2017-08-21T18:40:33.913Z,17.70
2017-08-21T18:41:35.040Z,17.64
2017-08-21T18:42:33.941Z,17.57
2017-08-21T18:43:33.970Z,17.57
2017-08-21T18:44:33.980Z,17.49
2017-08-21T18:45:34.007Z,17.44
2017-08-21T18:46:34.008Z,17.36
2017-08-21T18:47:34.026Z,17.34
2017-08-21T18:48:35.043Z,17.29
2017-08-21T18:49:39.570Z,17.26
2017-08-21T18:50:34.691Z,17.19
2017-08-21T18:51:36.113Z,17.09
2017-08-21T18:52:34.113Z,17.09
2017-08-21T18:53:34.119Z,17.08
2017-08-21T18:54:34.127Z,17.05
2017-08-21T18:55:34.141Z,16.94
2017-08-21T18:56:34.184Z,16.97
2017-08-21T18:57:34.172Z,16.99
2017-08-21T18:58:34.313Z,16.94
2017-08-21T18:59:34.205Z,16.93
2017-08-21T19:00:34.311Z,16.83
2017-08-21T19:01:34.235Z,16.81
2017-08-21T19:02:34.324Z,16.86
2017-08-21T19:03:34.268Z,16.79
2017-08-21T19:04:34.285Z,16.78
2017-08-21T19:05:34.346Z,16.76
2017-08-21T19:06:34.318Z,16.79
2017-08-21T19:07:34.331Z,16.72
2017-08-21T19:08:34.349Z,16.72
2017-08-21T19:09:34.369Z,16.69
2017-08-21T19:10:34.377Z,16.64
2017-08-21T19:11:34.393Z,16.56
2017-08-21T19:12:34.421Z,16.60
2017-08-21T19:13:34.420Z,16.49
2017-08-21T19:14:34.435Z,16.51
2017-08-21T19:15:34.454Z,16.54
2017-08-21T19:16:34.466Z,16.42
2017-08-21T19:17:34.583Z,16.43
2017-08-21T19:18:34.503Z,16.42
2017-08-21T19:19:34.613Z,16.42
2017-08-21T19:20:34.531Z,16.36
2017-08-21T19:21:34.629Z,16.38
2017-08-21T19:22:34.558Z,16.42
2017-08-21T19:23:34.695Z,16.32
2017-08-21T19:24:34.677Z,16.29
2017-08-21T19:25:34.664Z,16.23
2017-08-21T19:26:34.693Z,16.26
2017-08-21T19:27:34.725Z,16.32
2017-08-21T19:28:34.686Z,16.20
2017-08-21T19:29:34.710Z,16.16
2017-08-21T19:30:34.675Z,16.12
2017-08-21T19:31:34.801Z,16.13
2017-08-21T19:32:34.711Z,16.21
2017-08-21T19:33:34.945Z,16.05
2017-08-21T19:34:34.786Z,16.08
2017-08-21T19:35:34.846Z,16.05
2017-08-21T19:36:34.792Z,16.04
2017-08-21T19:37:34.882Z,15.95
2017-08-21T19:38:34.812Z,15.97
2017-08-21T19:39:34.971Z,15.94
2017-08-21T19:40:34.826Z,16.01
2017-08-21T19:41:34.879Z,15.94
2017-08-21T19:42:34.877Z,15.83
2017-08-21T19:43:34.991Z,15.92
2017-08-21T19:44:34.894Z,15.84
2017-08-21T19:45:35.013Z,15.76
2017-08-21T19:46:34.936Z,15.75
2017-08-21T19:47:35.021Z,15.77
2017-08-21T19:48:34.956Z,15.73
2017-08-21T19:49:35.037Z,15.70
2017-08-21T19:50:34.995Z,15.67
2017-08-21T19:51:35.000Z,15.68
2017-08-21T19:52:35.016Z,15.67
2017-08-21T19:53:35.122Z,15.70
2017-08-21T19:54:35.042Z,15.61
2017-08-21T19:55:35.078Z,15.64
2017-08-21T19:56:35.078Z,15.54
2017-08-21T19:57:35.093Z,15.58
2017-08-21T19:58:35.118Z,15.54